createdAt,value
2022-10-12T00:00:35.794Z,19.34
2022-10-12T00:03:03.441Z,19.35
2022-10-12T00:05:31.129Z,19.35
2022-10-12T00:07:58.714Z,19.34
2022-10-12T00:10:27.791Z,19.33
2022-10-12T00:12:55.434Z,19.33
2022-10-12T00:15:23.025Z,19.32
2022-10-12T00:17:50.650Z,19.32
2022-10-12T00:20:18.425Z,19.32
2022-10-12T00:22:46.100Z,19.32
2022-10-12T00:25:13.702Z,19.31
2022-10-12T00:27:42.703Z,19.31
2022-10-12T00:30:11.806Z,19.32
2022-10-12T00:32:39.478Z,19.31
2022-10-12T00:35:07.718Z,19.31
2022-10-12T00:37:35.525Z,19.30
2022-10-12T00:40:03.421Z,19.30
2022-10-12T00:42:31.050Z,19.30
2022-10-12T00:45:00.085Z,19.30
2022-10-12T00:47:29.393Z,19.30
2022-10-12T00:49:59.257Z,19.29
2022-10-12T00:52:30.422Z,19.30
2022-10-12T00:54:58.429Z,19.29
2022-10-12T00:57:26.118Z,19.28
2022-10-12T00:59:55.561Z,19.29
2022-10-12T01:02:24.646Z,19.28
2022-10-12T01:04:52.270Z,19.28
2022-10-12T01:07:20.055Z,19.27
2022-10-12T01:09:47.661Z,19.27
2022-10-12T01:12:15.254Z,19.27
2022-10-12T01:14:42.904Z,19.26
2022-10-12T01:17:16.528Z,19.26
2022-10-12T01:20:17.551Z,19.27
2022-10-12T01:22:46.756Z,19.26
2022-10-12T01:25:20.986Z,19.26
2022-10-12T01:27:48.661Z,19.26
2022-10-12T01:30:20.331Z,19.25
2022-10-12T01:33:18.301Z,19.24
2022-10-12T01:35:51.120Z,19.24
2022-10-12T01:38:26.099Z,19.24
2022-10-12T01:40:58.301Z,19.25
2022-10-12T01:43:34.045Z,19.24
2022-10-12T01:46:08.194Z,19.24
2022-10-12T01:48:35.818Z,19.24
2022-10-12T01:51:03.525Z,19.23
2022-10-12T01:53:34.351Z,19.23
2022-10-12T01:56:04.817Z,19.24
2022-10-12T01:58:36.204Z,19.23
2022-10-12T02:01:08.780Z,19.22
2022-10-12T02:03:37.891Z,19.21
2022-10-12T02:06:07.680Z,19.21
2022-10-12T02:08:36.853Z,19.21
2022-10-12T02:11:06.066Z,19.22
2022-10-12T02:13:35.405Z,19.20
2022-10-12T02:16:03.812Z,19.20
2022-10-12T02:18:32.775Z,19.20
2022-10-12T02:21:00.411Z,19.20
2022-10-12T02:23:28.067Z,19.20
2022-10-12T02:25:55.715Z,19.19
2022-10-12T02:28:24.690Z,19.19
2022-10-12T02:30:55.338Z,19.18
2022-10-12T02:33:24.918Z,19.18
2022-10-12T02:35:57.245Z,19.19
2022-10-12T02:38:27.707Z,19.17
2022-10-12T02:40:56.704Z,19.18
2022-10-12T02:43:25.351Z,19.17
2022-10-12T02:45:53.030Z,19.18
2022-10-12T02:48:23.164Z,19.16
2022-10-12T02:50:51.338Z,19.17
2022-10-12T02:53:20.314Z,19.17
2022-10-12T02:55:49.273Z,19.16
2022-10-12T02:58:16.921Z,19.16
2022-10-12T03:00:44.553Z,19.16
2022-10-12T03:03:12.260Z,19.15
2022-10-12T03:05:40.423Z,19.15
2022-10-12T03:08:08.227Z,19.16
2022-10-12T03:10:37.234Z,19.17
2022-10-12T03:13:04.821Z,19.14
2022-10-12T03:15:32.421Z,19.16
2022-10-12T03:18:00.037Z,19.15
2022-10-12T03:20:27.668Z,19.14
2022-10-12T03:22:55.332Z,19.15
2022-10-12T03:25:22.994Z,19.14
2022-10-12T03:27:52.021Z,19.14
2022-10-12T03:30:19.656Z,19.13
2022-10-12T03:32:47.357Z,19.14
2022-10-12T03:35:15.153Z,19.15
2022-10-12T03:37:42.792Z,19.13
2022-10-12T03:40:11.635Z,19.13
2022-10-12T03:42:39.325Z,19.13
2022-10-12T03:45:09.847Z,19.12
2022-10-12T03:47:38.106Z,19.13
2022-10-12T03:50:06.707Z,19.13
2022-10-12T03:52:34.310Z,19.13
2022-10-12T03:55:01.931Z,19.13
2022-10-12T03:57:29.518Z,19.12
2022-10-12T03:59:57.193Z,19.13
2022-10-12T04:02:26.159Z,19.13
2022-10-12T04:04:53.825Z,19.12
2022-10-12T04:07:21.419Z,19.11
2022-10-12T04:09:49.119Z,19.11
2022-10-12T04:12:16.769Z,19.12
2022-10-12T04:14:44.364Z,19.12
2022-10-12T04:17:12.541Z,19.10
2022-10-12T04:19:41.541Z,19.09
2022-10-12T04:22:09.161Z,19.10
2022-10-12T04:24:36.759Z,19.09
2022-10-12T04:27:04.628Z,19.08
2022-10-12T04:29:32.347Z,19.09
2022-10-12T04:32:00.036Z,19.10
2022-10-12T04:34:27.862Z,19.09
2022-10-12T04:36:56.877Z,19.11
2022-10-12T04:39:24.502Z,19.11
2022-10-12T04:41:52.178Z,19.10
2022-10-12T04:44:19.797Z,19.10
2022-10-12T04:46:47.474Z,19.11
2022-10-12T04:49:16.145Z,19.11
2022-10-12T04:51:43.841Z,19.11
2022-10-12T04:54:12.979Z,19.11
2022-10-12T04:56:44.196Z,19.10
2022-10-12T04:59:14.743Z,19.12
2022-10-12T05:01:42.451Z,19.11
2022-10-12T05:04:10.281Z,19.11
2022-10-12T05:06:37.922Z,19.11
2022-10-12T05:09:05.567Z,19.12
2022-10-12T05:11:34.688Z,19.12
2022-10-12T05:14:02.373Z,19.11
2022-10-12T05:16:30.037Z,19.11
2022-10-12T05:18:57.728Z,19.12
2022-10-12T05:21:25.382Z,19.11
2022-10-12T05:23:53.181Z,19.11
2022-10-12T05:26:20.891Z,19.11
2022-10-12T05:28:50.013Z,19.11
2022-10-12T05:31:17.721Z,19.10
2022-10-12T05:33:45.491Z,19.10
2022-10-12T05:36:13.167Z,19.11
2022-10-12T05:38:40.860Z,19.10
2022-10-12T05:41:08.603Z,19.11
2022-10-12T05:43:36.262Z,19.11
2022-10-12T05:46:05.677Z,19.11
2022-10-12T05:48:39.859Z,19.11
2022-10-12T05:51:07.674Z,19.10
2022-10-12T05:53:35.362Z,19.11
2022-10-12T05:56:03.131Z,19.11
2022-10-12T05:58:32.043Z,19.10
2022-10-12T06:01:07.118Z,18.96
2022-10-12T06:03:35.262Z,18.80
2022-10-12T06:06:03.357Z,18.89
2022-10-12T06:08:31.085Z,18.95
2022-10-12T06:10:58.711Z,18.99
2022-10-12T06:13:26.555Z,19.00
2022-10-12T06:15:54.290Z,19.01
2022-10-12T06:18:23.326Z,19.02
2022-10-12T06:21:08.673Z,19.01
2022-10-12T06:23:39.754Z,19.02
2022-10-12T06:26:07.498Z,19.03
2022-10-12T06:28:35.243Z,19.02
2022-10-12T06:31:02.964Z,19.03
2022-10-12T06:33:31.981Z,19.03
2022-10-12T06:35:59.594Z,19.04
2022-10-12T06:38:27.200Z,19.03
2022-10-12T06:40:54.824Z,19.04
2022-10-12T06:43:24.165Z,19.03
2022-10-12T06:45:51.846Z,19.04
2022-10-12T06:48:19.469Z,19.05
2022-10-12T06:50:48.854Z,19.04
2022-10-12T06:53:16.462Z,19.07
2022-10-12T06:55:44.044Z,19.06
2022-10-12T06:58:11.650Z,19.06
2022-10-12T07:00:39.366Z,19.07
2022-10-12T07:03:07.070Z,19.07
2022-10-12T07:05:34.748Z,19.08
2022-10-12T07:08:03.773Z,19.08
2022-10-12T07:10:31.397Z,19.08
2022-10-12T07:12:59.035Z,19.09
2022-10-12T07:15:26.825Z,19.09
2022-10-12T07:17:54.484Z,19.08
2022-10-12T07:20:22.201Z,19.08
2022-10-12T07:22:49.830Z,19.08
2022-10-12T07:25:18.977Z,19.08
2022-10-12T07:27:48.309Z,19.07
2022-10-12T07:30:16.257Z,19.07
2022-10-12T07:32:44.866Z,19.09
2022-10-12T07:35:12.500Z,19.08
2022-10-12T07:37:40.487Z,19.08
2022-10-12T07:40:09.661Z,19.07
2022-10-12T07:42:53.734Z,19.08
2022-10-12T07:45:46.525Z,19.09
2022-10-12T07:48:14.274Z,19.08
2022-10-12T07:50:41.946Z,19.08
2022-10-12T07:53:09.662Z,19.09
2022-10-12T07:55:37.327Z,19.08
2022-10-12T07:58:06.367Z,19.09
2022-10-12T08:00:34.138Z,19.10
2022-10-12T08:03:01.815Z,19.09
2022-10-12T08:05:29.502Z,19.08
2022-10-12T08:07:57.262Z,19.09
2022-10-12T08:10:24.878Z,19.08
2022-10-12T08:12:52.528Z,19.08
2022-10-12T08:15:21.614Z,19.09
2022-10-12T08:17:49.282Z,19.09
2022-10-12T08:20:17.118Z,19.08
2022-10-12T08:22:44.776Z,19.09
2022-10-12T08:25:12.459Z,19.08
2022-10-12T08:27:40.427Z,19.09
2022-10-12T08:30:09.341Z,19.08
2022-10-12T08:32:38.411Z,19.09
2022-10-12T08:35:06.786Z,19.09
2022-10-12T08:37:34.506Z,19.09
2022-10-12T08:40:03.473Z,19.09
2022-10-12T08:42:39.918Z,19.09
2022-10-12T08:45:31.372Z,19.09
2022-10-12T08:48:01.568Z,19.09
2022-10-12T08:50:32.093Z,19.09
2022-10-12T08:53:02.202Z,19.09
2022-10-12T08:55:35.769Z,19.08
2022-10-12T08:58:03.646Z,19.09
2022-10-12T09:00:31.682Z,19.09
2022-10-12T09:03:08.341Z,19.09
2022-10-12T09:05:38.489Z,19.09
2022-10-12T09:08:08.153Z,19.09
2022-10-12T09:10:44.250Z,19.09
2022-10-12T09:13:17.471Z,19.08
2022-10-12T09:15:47.630Z,19.08
2022-10-12T09:18:18.046Z,19.08
2022-10-12T09:20:47.749Z,19.09
2022-10-12T09:23:23.661Z,19.08
2022-10-12T09:25:51.349Z,19.08
2022-10-12T09:28:22.217Z,19.09
2022-10-12T09:31:03.529Z,19.09
2022-10-12T09:33:33.663Z,19.08
2022-10-12T09:36:01.378Z,19.08
2022-10-12T09:38:29.024Z,19.09
2022-10-12T09:40:56.647Z,19.09
2022-10-12T09:43:24.309Z,19.08
2022-10-12T09:45:51.942Z,19.08
2022-10-12T09:48:20.565Z,19.08
2022-10-12T09:50:54.714Z,19.08
2022-10-12T09:53:27.841Z,19.08
2022-10-12T09:55:57.941Z,19.08
2022-10-12T09:58:25.605Z,19.08
2022-10-12T10:01:19.262Z,19.08
2022-10-12T10:03:47.958Z,19.09
2022-10-12T10:06:16.993Z,19.08
2022-10-12T10:08:45.514Z,19.07
2022-10-12T10:11:17.515Z,19.07
2022-10-12T10:13:48.193Z,19.07
2022-10-12T10:16:16.571Z,19.08
2022-10-12T10:18:44.847Z,19.08
2022-10-12T10:21:14.330Z,19.08
2022-10-12T10:23:44.948Z,19.08
2022-10-12T10:26:15.001Z,19.08
2022-10-12T10:28:43.190Z,19.09
2022-10-12T10:31:21.511Z,19.08
2022-10-12T10:34:04.943Z,19.07
2022-10-12T10:36:32.651Z,19.08
2022-10-12T10:39:04.762Z,19.08
2022-10-12T10:41:33.144Z,19.08
2022-10-12T10:44:00.838Z,19.07
2022-10-12T10:46:30.578Z,19.08
2022-10-12T10:49:01.618Z,19.09
2022-10-12T10:51:42.973Z,19.08
2022-10-12T10:54:26.893Z,19.07
2022-10-12T10:56:56.444Z,19.08
2022-10-12T10:59:29.962Z,19.09
2022-10-12T11:01:59.083Z,19.09
2022-10-12T11:04:28.017Z,19.07
2022-10-12T11:06:57.094Z,19.07
2022-10-12T11:09:29.896Z,19.07
2022-10-12T11:11:58.500Z,19.07
2022-10-12T11:14:34.736Z,19.09
2022-10-12T11:17:04.155Z,19.09
2022-10-12T11:19:36.619Z,19.10
2022-10-12T11:22:05.153Z,19.11
2022-10-12T11:24:36.468Z,19.12
2022-10-12T11:27:05.211Z,19.14
2022-10-12T11:29:32.914Z,19.14
2022-10-12T11:32:04.213Z,19.17
2022-10-12T11:34:33.742Z,19.19
2022-10-12T11:37:19.118Z,19.20
2022-10-12T11:39:56.065Z,19.22
2022-10-12T11:42:29.249Z,19.24
2022-10-12T11:44:56.918Z,19.26
2022-10-12T11:47:29.178Z,19.26
2022-10-12T11:49:58.434Z,19.26
2022-10-12T11:52:28.971Z,19.27
2022-10-12T11:55:00.625Z,19.29
2022-10-12T11:57:29.757Z,19.31
2022-10-12T11:59:58.145Z,19.32
2022-10-12T12:02:27.186Z,19.33
2022-10-12T12:04:55.423Z,19.34
2022-10-12T12:07:43.358Z,19.33
2022-10-12T12:10:51.118Z,19.32
2022-10-12T12:13:22.946Z,19.31
2022-10-12T12:16:30.701Z,19.31
2022-10-12T12:19:20.782Z,19.30
2022-10-12T12:22:26.305Z,19.30
2022-10-12T12:25:12.757Z,19.30
2022-10-12T12:27:42.958Z,19.29
2022-10-12T12:30:27.284Z,19.28
2022-10-12T12:32:55.702Z,19.29
2022-10-12T12:35:26.417Z,19.28
2022-10-12T12:38:08.285Z,19.29
2022-10-12T12:40:35.967Z,19.28
2022-10-12T12:43:39.788Z,19.28
2022-10-12T12:46:08.158Z,19.28
2022-10-12T12:49:04.431Z,19.29
2022-10-12T12:51:38.265Z,19.29
2022-10-12T12:54:07.524Z,19.30
2022-10-12T12:56:39.306Z,19.28
2022-10-12T12:59:22.757Z,19.29
2022-10-12T13:02:01.090Z,19.28
2022-10-12T13:04:54.422Z,19.28
2022-10-12T13:07:51.879Z,19.28
2022-10-12T13:10:27.862Z,19.28
2022-10-12T13:13:10.229Z,19.28
2022-10-12T13:15:44.231Z,19.27
2022-10-12T13:18:45.873Z,19.28
2022-10-12T13:21:16.826Z,19.28
2022-10-12T13:23:45.283Z,19.29
2022-10-12T13:26:15.407Z,19.29
2022-10-12T13:28:44.034Z,19.29
2022-10-12T13:31:15.624Z,19.30
2022-10-12T13:33:46.526Z,19.29
2022-10-12T13:36:19.621Z,19.30
2022-10-12T13:38:47.259Z,19.31
2022-10-12T13:41:15.633Z,19.31
2022-10-12T13:43:46.862Z,19.31
2022-10-12T13:46:37.025Z,19.31
2022-10-12T13:49:05.126Z,19.32
2022-10-12T13:51:32.763Z,19.31
2022-10-12T13:54:00.431Z,19.31
2022-10-12T13:56:29.170Z,19.31
2022-10-12T13:58:58.346Z,19.31
2022-10-12T14:01:27.454Z,19.30
2022-10-12T14:04:03.085Z,19.29
2022-10-12T14:06:32.177Z,19.29
2022-10-12T14:09:00.717Z,19.29
2022-10-12T14:11:28.388Z,19.29
2022-10-12T14:13:56.640Z,19.28
2022-10-12T14:16:24.309Z,19.28
2022-10-12T14:18:53.297Z,19.27
2022-10-12T14:21:23.601Z,19.27
2022-10-12T14:23:52.545Z,19.28
2022-10-12T14:26:30.753Z,19.27
2022-10-12T14:28:58.870Z,19.26
2022-10-12T14:31:49.559Z,19.27
2022-10-12T14:34:28.664Z,19.26
2022-10-12T14:37:02.742Z,19.27
2022-10-12T14:39:30.424Z,19.25
2022-10-12T14:41:58.271Z,19.27
2022-10-12T14:44:26.782Z,19.25
2022-10-12T14:46:55.858Z,19.19
2022-10-12T14:49:25.719Z,19.22
2022-10-12T14:51:54.233Z,19.25
2022-10-12T14:54:22.006Z,19.25
2022-10-12T14:56:49.804Z,19.26
2022-10-12T14:59:17.440Z,19.27
2022-10-12T15:01:47.596Z,19.28
2022-10-12T15:04:17.917Z,19.29
2022-10-12T15:06:50.675Z,19.31
2022-10-12T15:09:18.831Z,19.31
2022-10-12T15:11:46.541Z,19.33
2022-10-12T15:14:14.445Z,19.35
2022-10-12T15:16:42.131Z,19.34
2022-10-12T15:19:09.791Z,19.34
2022-10-12T15:21:37.507Z,19.34
2022-10-12T15:24:12.263Z,19.35
2022-10-12T15:26:42.404Z,19.37
2022-10-12T15:29:10.281Z,19.37
2022-10-12T15:31:38.017Z,19.37
2022-10-12T15:34:07.641Z,19.38
2022-10-12T15:36:35.374Z,19.38
2022-10-12T15:39:03.087Z,19.37
2022-10-12T15:41:32.156Z,19.40
2022-10-12T15:43:59.854Z,19.41
2022-10-12T15:46:27.869Z,19.40
2022-10-12T15:48:55.576Z,19.40
2022-10-12T15:51:23.906Z,19.40
2022-10-12T15:53:52.773Z,19.39
2022-10-12T15:56:20.489Z,19.40
2022-10-12T15:58:49.599Z,19.40
2022-10-12T16:01:18.595Z,19.40
2022-10-12T16:03:46.457Z,19.41
2022-10-12T16:06:14.166Z,19.42
2022-10-12T16:08:41.931Z,19.41
2022-10-12T16:11:10.735Z,19.41
2022-10-12T16:13:45.419Z,19.41
2022-10-12T16:16:16.237Z,19.41
2022-10-12T16:19:02.971Z,19.42
2022-10-12T16:21:32.705Z,19.43
2022-10-12T16:24:00.359Z,19.44
2022-10-12T16:26:28.020Z,19.49
2022-10-12T16:28:55.732Z,19.55
2022-10-12T16:31:24.897Z,19.62
2022-10-12T16:33:52.590Z,19.72
2022-10-12T16:36:20.231Z,19.80
2022-10-12T16:38:47.930Z,19.86
2022-10-12T16:41:16.431Z,19.94
2022-10-12T16:43:44.228Z,20.02
2022-10-12T16:46:11.943Z,20.10
2022-10-12T16:48:41.038Z,20.18
2022-10-12T16:51:09.241Z,20.23
2022-10-12T16:53:37.001Z,20.29
2022-10-12T16:56:04.822Z,20.34
2022-10-12T16:58:33.008Z,20.38
2022-10-12T17:01:09.013Z,20.44
2022-10-12T17:03:36.754Z,20.49
2022-10-12T17:06:06.053Z,20.52
2022-10-12T17:08:34.735Z,20.57
2022-10-12T17:11:06.279Z,20.62
2022-10-12T17:13:36.357Z,20.62
2022-10-12T17:16:25.417Z,20.64
2022-10-12T17:18:58.196Z,20.67
2022-10-12T17:21:28.603Z,20.71
2022-10-12T17:23:57.082Z,20.73
2022-10-12T17:26:24.806Z,20.76
2022-10-12T17:28:52.554Z,20.82
2022-10-12T17:31:20.328Z,20.81
2022-10-12T17:33:49.086Z,20.80
2022-10-12T17:36:16.923Z,20.83
2022-10-12T17:38:46.074Z,20.84
2022-10-12T17:41:13.795Z,20.84
2022-10-12T17:43:41.558Z,20.84
2022-10-12T17:46:09.313Z,20.88
2022-10-12T17:48:37.074Z,20.89
2022-10-12T17:51:06.046Z,20.89
2022-10-12T17:53:33.749Z,20.90
2022-10-12T17:56:03.294Z,20.97
2022-10-12T17:58:31.234Z,20.95
2022-10-12T18:00:59.066Z,20.91
2022-10-12T18:03:28.180Z,20.92
2022-10-12T18:05:55.846Z,20.96
2022-10-12T18:08:23.510Z,20.99
2022-10-12T18:10:51.245Z,20.98
2022-10-12T18:13:20.325Z,20.99
2022-10-12T18:15:48.076Z,21.04
2022-10-12T18:18:15.849Z,21.02
2022-10-12T18:20:43.527Z,21.04
2022-10-12T18:23:11.184Z,21.04
2022-10-12T18:25:38.921Z,21.05
2022-10-12T18:28:06.662Z,21.03
2022-10-12T18:30:35.766Z,21.05
2022-10-12T18:33:03.426Z,21.04
2022-10-12T18:35:31.322Z,21.05
2022-10-12T18:37:59.285Z,21.05
2022-10-12T18:40:26.992Z,21.05
2022-10-12T18:42:54.718Z,21.04
2022-10-12T18:45:22.459Z,21.03
2022-10-12T18:47:51.607Z,21.03
2022-10-12T18:50:19.325Z,21.07
2022-10-12T18:52:46.955Z,21.10
2022-10-12T18:55:14.630Z,21.08
2022-10-12T18:57:42.349Z,21.07
2022-10-12T19:00:10.934Z,21.11
2022-10-12T19:02:38.583Z,21.12
2022-10-12T19:05:08.326Z,21.11
2022-10-12T19:07:36.413Z,21.12
2022-10-12T19:10:07.042Z,21.09
2022-10-12T19:12:34.890Z,21.10
2022-10-12T19:15:02.983Z,21.02
2022-10-12T19:17:31.939Z,20.97
2022-10-12T19:19:59.626Z,20.93
2022-10-12T19:22:28.675Z,20.86
2022-10-12T19:24:56.296Z,20.81
2022-10-12T19:27:23.933Z,20.77
2022-10-12T19:29:52.001Z,20.71
2022-10-12T19:32:20.112Z,20.66
2022-10-12T19:34:48.228Z,20.61
2022-10-12T19:37:15.869Z,20.56
2022-10-12T19:39:47.163Z,20.53
2022-10-12T19:42:14.928Z,20.50
2022-10-12T19:44:42.792Z,20.44
2022-10-12T19:47:10.487Z,20.41
2022-10-12T19:49:41.932Z,20.37
2022-10-12T19:52:12.209Z,20.32
2022-10-12T19:54:39.882Z,20.28
2022-10-12T19:57:08.917Z,20.26
2022-10-12T19:59:36.597Z,20.22
2022-10-12T20:02:04.247Z,20.20
2022-10-12T20:04:31.873Z,20.16
2022-10-12T20:06:59.825Z,20.15
2022-10-12T20:09:27.487Z,20.14
2022-10-12T20:11:55.089Z,20.13
2022-10-12T20:14:25.544Z,20.10
2022-10-12T20:16:54.442Z,20.09
2022-10-12T20:19:22.096Z,20.05
2022-10-12T20:21:49.737Z,20.05
2022-10-12T20:24:17.450Z,20.00
2022-10-12T20:26:45.106Z,20.00
2022-10-12T20:29:12.831Z,19.98
2022-10-12T20:31:41.847Z,19.96
2022-10-12T20:34:09.486Z,19.94
2022-10-12T20:36:37.176Z,19.92
2022-10-12T20:39:04.906Z,19.91
2022-10-12T20:41:32.612Z,19.89
2022-10-12T20:44:00.968Z,19.88
2022-10-12T20:46:29.077Z,19.86
2022-10-12T20:48:59.175Z,19.85
2022-10-12T20:51:28.698Z,19.83
2022-10-12T20:53:58.908Z,19.82
2022-10-12T20:56:26.533Z,19.81
2022-10-12T20:58:54.301Z,19.79
2022-10-12T21:01:22.076Z,19.79
2022-10-12T21:03:49.946Z,19.78
2022-10-12T21:06:20.476Z,19.76
2022-10-12T21:08:50.050Z,19.74
2022-10-12T21:11:17.904Z,19.73
2022-10-12T21:13:46.028Z,19.71
2022-10-12T21:16:14.142Z,19.71
2022-10-12T21:18:41.974Z,19.69
2022-10-12T21:21:12.690Z,19.67
2022-10-12T21:23:42.162Z,19.67
2022-10-12T21:26:10.274Z,19.66
2022-10-12T21:28:37.974Z,19.65
2022-10-12T21:31:05.794Z,19.63
2022-10-12T21:33:34.081Z,19.63
2022-10-12T21:36:09.126Z,19.62
2022-10-12T21:38:36.819Z,19.61
2022-10-12T21:41:06.226Z,19.59
2022-10-12T21:43:33.847Z,19.58
2022-10-12T21:46:05.180Z,19.58
2022-10-12T21:48:32.931Z,19.57
2022-10-12T21:51:00.875Z,19.57
2022-10-12T21:53:28.699Z,19.55
2022-10-12T21:55:56.357Z,19.53
2022-10-12T21:58:25.558Z,19.53
2022-10-12T22:00:53.272Z,19.51
2022-10-12T22:03:20.973Z,19.50
2022-10-12T22:05:48.594Z,19.49
2022-10-12T22:08:16.216Z,19.49
2022-10-12T22:10:43.817Z,19.46
2022-10-12T22:13:11.466Z,19.47
2022-10-12T22:15:40.488Z,19.45
2022-10-12T22:18:08.142Z,19.45
2022-10-12T22:20:36.970Z,19.44
2022-10-12T22:23:04.618Z,19.43
2022-10-12T22:25:32.291Z,19.43
2022-10-12T22:27:59.933Z,19.44
2022-10-12T22:30:27.642Z,19.43
2022-10-12T22:32:56.699Z,19.43
2022-10-12T22:35:24.906Z,19.42
2022-10-12T22:37:52.501Z,19.40
2022-10-12T22:40:20.257Z,19.42
2022-10-12T22:42:47.897Z,19.40
2022-10-12T22:45:16.178Z,19.41
2022-10-12T22:47:43.797Z,19.41
2022-10-12T22:50:12.886Z,19.41
2022-10-12T22:52:40.549Z,19.41
2022-10-12T22:55:09.194Z,19.39
2022-10-12T22:57:36.880Z,19.38
2022-10-12T23:00:05.252Z,19.37
2022-10-12T23:02:32.899Z,19.39
2022-10-12T23:05:00.562Z,19.38
2022-10-12T23:07:29.568Z,19.38
2022-10-12T23:09:57.190Z,19.36
2022-10-12T23:12:24.842Z,19.36
2022-10-12T23:14:52.469Z,19.37
2022-10-12T23:17:20.158Z,19.36
2022-10-12T23:19:47.805Z,19.36
2022-10-12T23:22:15.610Z,19.37
2022-10-12T23:24:44.795Z,19.35
2022-10-12T23:27:12.421Z,19.36
2022-10-12T23:29:40.111Z,19.35
2022-10-12T23:32:07.737Z,19.34
2022-10-12T23:34:35.354Z,19.36
2022-10-12T23:37:03.214Z,19.34
2022-10-12T23:39:30.934Z,19.35
2022-10-12T23:41:59.943Z,19.34
2022-10-12T23:44:27.578Z,19.33
2022-10-12T23:46:55.262Z,19.33
2022-10-12T23:49:23.035Z,19.34
2022-10-12T23:51:50.633Z,19.32
2022-10-12T23:54:18.286Z,19.32
2022-10-12T23:56:45.913Z,19.33
2022-10-12T23:59:15.191Z,19.33
